| time (UTC) | temp C | wind direction | speed KPH | gust KPH | rain 1hr cm | rain 24hr cm | rain mn cm | humidity % | barometer mb |
| 20260906230100 | 37 | 121 | 4.8 | 12.9 | 0.00 | 0.00 | 0.00 | 43 | 1009.5 |
| 20260906224559 | 37 | 104 | 3.2 | 9.7 | 0.00 | 0.00 | 0.00 | 42 | 1009.4 |
| 20260906223055 | 37 | 45 | 4.8 | 11.3 | 0.00 | 0.00 | 0.00 | 43 | 1009.6 |
| 20260906221553 | 37 | 145 | 0.0 | 12.9 | 0.00 | 0.00 | 0.00 | 42 | 1009.7 |
| 20260906220051 | 37 | 121 | 4.8 | 12.9 | 0.00 | 0.00 | 0.00 | 41 | 1009.8 |
| 20260906214552 | 37 | 74 | 3.2 | 16.1 | 0.00 | 0.00 | 0.00 | 41 | 1010.0 |
| 20260906213046 | 37 | 136 | 1.6 | 11.3 | 0.00 | 0.00 | 0.00 | 42 | 1010.0 |
| 20260906211546 | 37 | 78 | 1.6 | 11.3 | 0.00 | 0.00 | 0.00 | 43 | 1010.3 |
| 20260906210047 | 37 | 96 | 3.2 | 16.1 | 0.00 | 0.00 | 0.00 | 43 | 1010.6 |
| 20260906204540 | 37 | 137 | 3.2 | 12.9 | 0.00 | 0.00 | 0.00 | 43 | 1010.5 |
| 20260906203036 | 37 | 159 | 1.6 | 11.3 | 0.00 | 0.00 | 0.00 | 43 | 1010.7 |
| 20260906201534 | 37 | 63 | 8.0 | 17.7 | 0.00 | 0.00 | 0.00 | 43 | 1010.9 |
| 20260906200038 | 37 | 148 | 1.6 | 11.3 | 0.00 | 0.00 | 0.00 | 46 | 1011.0 |
| 20260906194524 | 36 | 71 | 1.6 | 12.9 | 0.00 | 0.00 | 0.00 | 45 | 1011.1 |
| 20260906193021 | 36 | 115 | 3.2 | 12.9 | 0.00 | 0.00 | 0.00 | 46 | 1011.4 |
| 20260906191530 | 36 | 144 | 4.8 | 16.1 | 0.00 | 0.00 | 0.00 | 48 | 1011.7 |
| 20260906190016 | 36 | 105 | 3.2 | 8.0 | 0.00 | 0.00 | 0.00 | 48 | 1011.7 |
| 20260906184516 | 36 | 159 | 3.2 | 12.9 | 0.00 | 0.00 | 0.00 | 48 | 1011.9 |
| 20260906183013 | 35 | 121 | 1.6 | 9.7 | 0.00 | 0.00 | 0.00 | 50 | 1012.0 |
| 20260906181534 | 36 | 136 | 1.6 | 14.5 | 0.00 | 0.00 | 0.00 | 49 | 1012.3 |
| 20260906180019 | 35 | 134 | 3.2 | 14.5 | 0.00 | 0.00 | 0.00 | 50 | 1012.5 |
| 20260906174505 | 35 | 170 | 1.6 | 14.5 | 0.00 | 0.00 | 0.00 | 52 | 1012.8 |
| 20260906173007 | 35 | 175 | 4.8 | 17.7 | 0.00 | 0.00 | 0.00 | 52 | 1013.1 |
| 20260906171502 | 35 | 284 | 1.6 | 4.8 | 0.00 | 0.00 | 0.00 | 53 | 1013.4 |
| 20260906170110 | 34 | 142 | 1.6 | 8.0 | 0.00 | 0.00 | 0.00 | 56 | 1013.7 |
| 20260906164602 | 34 | 90 | 1.6 | 6.4 | 0.00 | 0.00 | 0.00 | 55 | 1013.9 |
| 20260906163057 | 33 | 254 | 1.6 | 9.7 | 0.00 | 0.00 | 0.00 | 57 | 1013.7 |
| 20260906161551 | 33 | 41 | 6.4 | 12.9 | 0.00 | 0.00 | 0.00 | 59 | 1013.6 |
| 20260906160049 | 32 | 85 | 1.6 | 12.9 | 0.00 | 0.00 | 0.00 | 62 | 1013.7 |
| 20260906154547 | 32 | 49 | 3.2 | 8.0 | 0.00 | 0.00 | 0.00 | 63 | 1013.6 |
| 20260906153045 | 32 | 159 | 0.0 | 4.8 | 0.00 | 0.00 | 0.00 | 65 | 1013.6 |
| 20260906151547 | 31 | 110 | 3.2 | 6.4 | 0.00 | 0.00 | 0.00 | 66 | 1013.7 |
| 20260906150043 | 31 | 110 | 1.6 | 6.4 | 0.00 | 0.00 | 0.00 | 69 | 1013.5 |
| 20260906144547 | 30 | 150 | 0.0 | 4.8 | 0.00 | 0.00 | 0.00 | 71 | 1013.4 |
| 20260906143037 | 30 | 148 | 1.6 | 4.8 | 0.00 | 0.00 | 0.00 | 72 | 1013.5 |
| 20260906141535 | 29 | 124 | 0.0 | 3.2 | 0.00 | 0.00 | 0.00 | 73 | 1013.5 |
| 20260906140029 | 28 | 123 | 0.0 | 3.2 | 0.00 | 0.00 | 0.00 | 75 | 1013.6 |
| 20260906134531 | 28 | 123 | 0.0 | 3.2 | 0.00 | 0.00 | 0.00 | 77 | 1013.4 |
| 20260906133027 | 27 | 123 | 0.0 | 3.2 | 0.00 | 0.00 | 0.00 | 79 | 1013.3 |
| 20260906131534 | 26 | 123 | 0.0 | 3.2 | 0.00 | 0.00 | 0.00 | 84 | 1013.3 |
| 20260906130026 | 25 | 123 | 0.0 | 0.0 | 0.00 | 0.00 | 0.00 | 87 | 1013.3 |
| 20260906124524 | 24 | 123 | 0.0 | 0.0 | 0.00 | 0.00 | 0.00 | 87 | 1013.1 |
| 20260906123024 | 24 | 123 | 0.0 | 0.0 | 0.00 | 0.00 | 0.00 | 87 | 1013.1 |
| 20260906121522 | 24 | 123 | 0.0 | 0.0 | 0.00 | 0.00 | 0.00 | 87 | 1013.0 |
| 20260906120018 | 24 | 123 | 0.0 | 0.0 | 0.00 | 0.00 | 0.00 | 86 | 1012.7 |
| 20260906114529 | 25 | 123 | 0.0 | 0.0 | 0.00 | 0.00 | 0.00 | 85 | 1012.4 |
| 20260906113014 | 25 | 123 | 0.0 | 0.0 | 0.00 | 0.00 | 0.00 | 85 | 1012.4 |
| 20260906111513 | 25 | 123 | 0.0 | 0.0 | 0.00 | 0.00 | 0.00 | 84 | 1012.2 |
| 20260906110012 | 25 | 123 | 0.0 | 0.0 | 0.00 | 0.00 | 0.00 | 83 | 1012.2 |
| 20260906104509 | 25 | 123 | 0.0 | 0.0 | 0.00 | 0.00 | 0.00 | 83 | 1012.1 |
| 20260906103007 | 25 | 123 | 0.0 | 0.0 | 0.00 | 0.00 | 0.00 | 82 | 1012.0 |
| 20260906101506 | 26 | 123 | 0.0 | 0.0 | 0.00 | 0.00 | 0.00 | 81 | 1012.1 |
| 20260906100005 | 26 | 123 | 0.0 | 0.0 | 0.00 | 0.00 | 0.00 | 80 | 1011.8 |
| 20260906094506 | 26 | 123 | 0.0 | 0.0 | 0.00 | 0.00 | 0.00 | 80 | 1011.7 |
| 20260906093131 | 26 | 123 | 0.0 | 1.6 | 0.00 | 0.00 | 0.00 | 79 | 1011.5 |
| 20260906091609 | 26 | 123 | 0.0 | 0.0 | 0.00 | 0.00 | 0.00 | 79 | 1011.5 |
| 20260906090059 | 27 | 123 | 0.0 | 3.2 | 0.00 | 0.00 | 0.00 | 79 | 1011.3 |
| 20260906084556 | 27 | 123 | 0.0 | 0.0 | 0.00 | 0.00 | 0.00 | 78 | 1011.3 |
| 20260906083056 | 27 | 123 | 0.0 | 1.6 | 0.00 | 0.00 | 0.00 | 77 | 1011.2 |
| 20260906081554 | 27 | 123 | 0.0 | 3.2 | 0.00 | 0.00 | 0.00 | 78 | 1011.3 |
| 20260906080053 | 27 | 123 | 0.0 | 0.0 | 0.00 | 0.00 | 0.00 | 76 | 1011.5 |
| 20260906074554 | 27 | 123 | 0.0 | 1.6 | 0.00 | 0.00 | 0.00 | 76 | 1011.8 |
| 20260906073049 | 27 | 123 | 0.0 | 3.2 | 0.00 | 0.00 | 0.00 | 75 | 1011.5 |
| 20260906071550 | 27 | 123 | 0.0 | 3.2 | 0.00 | 0.00 | 0.00 | 75 | 1011.6 |
| 20260906070046 | 27 | 122 | 0.0 | 1.6 | 0.00 | 0.00 | 0.00 | 75 | 1011.5 |
| 20260906064544 | 28 | 122 | 0.0 | 3.2 | 0.00 | 0.00 | 0.00 | 75 | 1011.7 |
| 20260906063043 | 28 | 123 | 0.0 | 3.2 | 0.00 | 0.00 | 0.00 | 75 | 1011.9 |
| 20260906061540 | 28 | 123 | 0.0 | 1.6 | 0.00 | 0.00 | 0.00 | 74 | 1012.0 |
| 20260906060040 | 28 | 123 | 0.0 | 1.6 | 0.00 | 0.00 | 0.00 | 73 | 1012.1 |
| 20260906054541 | 28 | 122 | 0.0 | 0.0 | 0.00 | 0.00 | 0.00 | 72 | 1012.0 |
| 20260906053039 | 28 | 123 | 0.0 | 1.6 | 0.00 | 0.00 | 0.00 | 71 | 1012.1 |
| 20260906051547 | 29 | 122 | 0.0 | 1.6 | 0.00 | 0.00 | 0.00 | 70 | 1012.1 |
| 20260906050029 | 29 | 122 | 0.0 | 0.0 | 0.00 | 0.00 | 0.00 | 70 | 1012.1 |
| 20260906044529 | 30 | 122 | 0.0 | 0.0 | 0.00 | 0.00 | 0.00 | 69 | 1011.9 |
| 20260906043029 | 30 | 122 | 0.0 | 3.2 | 0.00 | 0.00 | 0.00 | 68 | 1011.9 |
| 20260906041528 | 30 | 122 | 0.0 | 3.2 | 0.00 | 0.00 | 0.00 | 68 | 1011.7 |
| 20260906040032 | 30 | 121 | 1.6 | 4.8 | 0.00 | 0.00 | 0.00 | 67 | 1011.8 |
| 20260906034527 | 30 | 146 | 3.2 | 14.5 | 0.00 | 0.00 | 0.00 | 67 | 1011.5 |
| 20260906033038 | 31 | 146 | 0.0 | 8.0 | 0.00 | 0.00 | 0.00 | 66 | 1011.9 |
| 20260906031535 | 31 | 148 | 0.0 | 9.7 | 0.00 | 0.00 | 0.00 | 65 | 1011.9 |
| 20260906030025 | 31 | 129 | 1.6 | 4.8 | 0.00 | 0.00 | 0.00 | 64 | 1011.8 |
| 20260906024540 | 31 | 134 | 1.6 | 11.3 | 0.00 | 0.00 | 0.00 | 63 | 1011.5 |
| 20260906023026 | 32 | 118 | 1.6 | 9.7 | 0.00 | 0.00 | 0.00 | 60 | 1011.2 |
| 20260906021525 | 32 | 142 | 3.2 | 16.1 | 0.00 | 0.00 | 0.00 | 59 | 1011.0 |
| 20260906020023 | 32 | 143 | 3.2 | 12.9 | 0.00 | 0.00 | 0.00 | 57 | 1010.7 |
| 20260906014537 | 33 | 126 | 6.4 | 16.1 | 0.00 | 0.00 | 0.00 | 54 | 1010.6 |
| 20260906013037 | 34 | 127 | 6.4 | 14.5 | 0.00 | 0.00 | 0.00 | 50 | 1010.2 |
| 20260906011522 | 34 | 146 | 1.6 | 8.0 | 0.00 | 0.00 | 0.00 | 48 | 1009.8 |
| 20260906010025 | 35 | 150 | 1.6 | 12.9 | 0.00 | 0.00 | 0.00 | 47 | 1009.7 |
| 20260906004523 | 35 | 182 | 3.2 | 11.3 | 0.00 | 0.00 | 0.00 | 45 | 1009.8 |
| 20260906003020 | 36 | 173 | 1.6 | 6.4 | 0.00 | 0.00 | 0.00 | 44 | 1009.8 |
| 20260906001522 | 36 | 104 | 0.0 | 3.2 | 0.00 | 0.00 | 0.00 | 43 | 1009.7 |
| 20260906000018 | 36 | 100 | 1.6 | 4.8 | 0.00 | 0.00 | 0.00 | 42 | 1009.4 |
| 20260905234518 | 36 | 98 | 0.0 | 4.8 | 0.00 | 0.00 | 0.00 | 42 | 1009.5 |
| 20260905233017 | 36 | 88 | 1.6 | 8.0 | 0.00 | 0.00 | 0.00 | 42 | 1009.3 |
| 20260905231517 | 36 | 76 | 3.2 | 11.3 | 0.00 | 0.00 | 0.00 | 43 | 1009.4 |